Aviation Digital Data Service (ADDS)

Output produced by METARs form (1302 UTC 17 January 2017)
found at http://aviationweather.gov/adds/metars/
 
KARA 171253Z 17008KT 7SM OVC004 21/19 A3010 RMK AO2 SLP193 T02110194 $